createdAt,value
2023-01-15T00:02:31.078Z,34.30
2023-01-15T00:05:02.817Z,34.30
2023-01-15T00:07:30.635Z,34.30
2023-01-15T00:09:58.191Z,34.30
2023-01-15T00:12:24.259Z,34.30
2023-01-15T00:14:50.397Z,34.20
2023-01-15T00:17:19.943Z,34.30
2023-01-15T00:19:46.789Z,34.30
2023-01-15T00:22:12.857Z,34.30
2023-01-15T00:24:57.511Z,34.30
2023-01-15T00:27:45.334Z,34.30
2023-01-15T00:30:15.373Z,34.30
2023-01-15T00:32:42.371Z,34.30
2023-01-15T00:35:14.622Z,34.30
2023-01-15T00:37:59.578Z,34.30
2023-01-15T00:40:27.934Z,34.30
2023-01-15T00:43:15.994Z,34.30
2023-01-15T00:45:47.547Z,34.30
2023-01-15T00:48:13.638Z,34.40
2023-01-15T00:50:42.746Z,34.30
2023-01-15T00:53:08.821Z,34.30
2023-01-15T00:55:34.929Z,34.30
2023-01-15T00:58:00.992Z,34.30
2023-01-15T01:00:27.028Z,34.30
2023-01-15T01:02:53.115Z,34.30
2023-01-15T01:05:19.248Z,34.30
2023-01-15T01:08:10.564Z,34.30
2023-01-15T01:10:39.712Z,34.30
2023-01-15T01:13:05.939Z,34.30
2023-01-15T01:15:37.911Z,34.30
2023-01-15T01:18:06.679Z,34.30
2023-01-15T01:20:33.891Z,34.30
2023-01-15T01:22:59.972Z,34.30
2023-01-15T01:25:26.088Z,34.30
2023-01-15T01:27:52.139Z,34.30
2023-01-15T01:30:27.011Z,34.30
2023-01-15T01:32:53.076Z,34.30
2023-01-15T01:35:22.891Z,34.30
2023-01-15T01:37:50.453Z,34.30
2023-01-15T01:40:17.537Z,34.30
2023-01-15T01:42:43.753Z,34.30
2023-01-15T01:45:25.670Z,34.30
2023-01-15T01:47:58.877Z,34.30
2023-01-15T01:50:31.352Z,34.20
2023-01-15T01:53:02.867Z,34.30
2023-01-15T01:55:32.957Z,34.30
2023-01-15T01:58:02.627Z,34.30
2023-01-15T02:00:32.025Z,34.50
2023-01-15T02:02:59.314Z,34.30
2023-01-15T02:05:33.204Z,34.30
2023-01-15T02:08:00.238Z,34.30
2023-01-15T02:10:28.510Z,34.40
2023-01-15T02:13:24.106Z,34.30
2023-01-15T02:16:39.520Z,34.30
2023-01-15T02:19:46.472Z,34.30
2023-01-15T02:22:49.708Z,34.30
2023-01-15T02:25:48.861Z,34.30
2023-01-15T02:28:36.513Z,34.30
2023-01-15T02:31:13.518Z,34.30
2023-01-15T02:34:04.035Z,34.30
2023-01-15T02:36:37.779Z,34.30
2023-01-15T02:39:11.758Z,34.40
2023-01-15T02:41:46.809Z,34.30
2023-01-15T02:44:20.811Z,34.30
2023-01-15T02:46:49.826Z,34.40
2023-01-15T02:49:21.146Z,34.30
2023-01-15T02:51:52.769Z,34.30
2023-01-15T02:54:20.768Z,34.30
2023-01-15T02:56:49.175Z,34.30
2023-01-15T02:59:26.636Z,34.30
2023-01-15T03:02:11.605Z,34.40
2023-01-15T03:04:54.469Z,34.30
2023-01-15T03:07:35.510Z,34.30
2023-01-15T03:10:03.030Z,34.30
2023-01-15T03:13:02.718Z,34.40
2023-01-15T03:16:02.537Z,34.40
2023-01-15T03:18:35.185Z,34.40
2023-01-15T03:21:08.380Z,34.30
2023-01-15T03:23:39.868Z,34.40
2023-01-15T03:26:06.975Z,34.40
2023-01-15T03:28:38.128Z,34.40
2023-01-15T03:31:08.355Z,34.30
2023-01-15T03:33:35.088Z,34.40
2023-01-15T03:36:01.856Z,34.40
2023-01-15T03:38:34.824Z,34.40
2023-01-15T03:41:42.825Z,34.40
2023-01-15T03:44:27.210Z,34.40
2023-01-15T03:47:35.059Z,34.30
2023-01-15T03:50:24.452Z,34.30
2023-01-15T03:53:20.783Z,34.40
2023-01-15T03:56:24.202Z,34.40
2023-01-15T03:59:08.999Z,34.40
2023-01-15T04:01:48.655Z,34.40
2023-01-15T04:04:16.107Z,34.40
2023-01-15T04:06:47.433Z,34.40
2023-01-15T04:09:15.069Z,34.40
2023-01-15T04:11:41.187Z,34.40
2023-01-15T04:14:07.398Z,34.40
2023-01-15T04:16:34.233Z,34.40
2023-01-15T04:19:02.043Z,34.40
2023-01-15T04:21:28.239Z,34.40
2023-01-15T04:23:56.323Z,34.40
2023-01-15T04:26:22.554Z,34.40
2023-01-15T04:28:48.773Z,34.40
2023-01-15T04:31:18.060Z,34.50
2023-01-15T04:33:45.030Z,34.40
2023-01-15T04:36:16.615Z,34.40
2023-01-15T04:38:46.315Z,34.40
2023-01-15T04:41:32.116Z,34.40
2023-01-15T04:44:08.517Z,34.40
2023-01-15T04:46:47.265Z,34.40
2023-01-15T04:49:17.459Z,34.50
2023-01-15T04:51:44.267Z,34.40
2023-01-15T04:54:12.861Z,34.40
2023-01-15T04:56:41.800Z,34.40
2023-01-15T04:59:11.420Z,34.40
2023-01-15T05:01:37.825Z,34.40
2023-01-15T05:04:04.259Z,34.40
2023-01-15T05:06:30.783Z,34.40
2023-01-15T05:09:01.046Z,34.40
2023-01-15T05:11:34.690Z,34.40
2023-01-15T05:14:02.346Z,34.40
2023-01-15T05:16:32.676Z,34.50
2023-01-15T05:19:03.972Z,34.40
2023-01-15T05:21:33.573Z,34.40
2023-01-15T05:24:01.598Z,34.40
2023-01-15T05:26:32.460Z,34.50
2023-01-15T05:28:59.876Z,34.50
2023-01-15T05:31:26.856Z,35.10
2023-01-15T05:33:54.372Z,34.40
2023-01-15T05:36:30.709Z,34.40
2023-01-15T05:39:01.983Z,34.40
2023-01-15T05:41:47.861Z,34.30
2023-01-15T05:44:34.563Z,34.30
2023-01-15T05:47:08.536Z,34.30
2023-01-15T05:49:34.686Z,34.30
2023-01-15T05:52:01.646Z,34.30
2023-01-15T05:54:36.358Z,34.30
2023-01-15T05:57:03.250Z,34.20
2023-01-15T05:59:32.401Z,34.20
2023-01-15T06:02:00.418Z,34.20
2023-01-15T06:04:28.124Z,34.20
2023-01-15T06:06:58.420Z,34.10
2023-01-15T06:09:30.702Z,34.10
2023-01-15T06:11:57.078Z,34.10
2023-01-15T06:14:27.054Z,34.10
2023-01-15T06:16:53.210Z,34.00
2023-01-15T06:19:19.769Z,34.10
2023-01-15T06:21:46.037Z,34.00
2023-01-15T06:24:12.275Z,34.10
2023-01-15T06:26:39.010Z,34.00
2023-01-15T06:29:05.080Z,34.00
2023-01-15T06:31:33.556Z,34.00
2023-01-15T06:33:59.850Z,34.00
2023-01-15T06:36:28.513Z,34.00
2023-01-15T06:38:55.051Z,33.90
2023-01-15T06:41:43.015Z,33.90
2023-01-15T06:44:38.536Z,33.90
2023-01-15T06:47:23.089Z,33.90
2023-01-15T06:49:56.770Z,33.90
2023-01-15T06:52:28.902Z,33.90
2023-01-15T06:54:58.041Z,33.90
2023-01-15T06:57:24.162Z,33.90
2023-01-15T06:59:51.494Z,33.90
2023-01-15T07:02:18.561Z,33.90
2023-01-15T07:04:45.689Z,33.90
2023-01-15T07:07:36.849Z,33.90
2023-01-15T07:10:03.087Z,33.90
2023-01-15T07:12:29.828Z,33.90
2023-01-15T07:15:06.408Z,34.00
2023-01-15T07:17:32.478Z,33.90
2023-01-15T07:19:58.778Z,34.00
2023-01-15T07:22:25.094Z,33.90
2023-01-15T07:24:53.791Z,34.00
2023-01-15T07:27:21.058Z,33.90
2023-01-15T07:29:51.362Z,33.90
2023-01-15T07:32:17.863Z,33.90
2023-01-15T07:34:49.281Z,34.00
2023-01-15T07:37:15.339Z,33.90
2023-01-15T07:39:41.392Z,33.90
2023-01-15T07:42:29.612Z,33.90
2023-01-15T07:45:14.555Z,33.90
2023-01-15T07:48:01.983Z,33.90
2023-01-15T07:50:52.731Z,33.90
2023-01-15T07:53:18.774Z,33.90
2023-01-15T07:55:48.147Z,33.90
2023-01-15T07:58:16.235Z,33.90
2023-01-15T08:00:46.039Z,33.90
2023-01-15T08:03:12.150Z,33.90
2023-01-15T08:05:38.290Z,33.90
2023-01-15T08:08:04.641Z,33.90
2023-01-15T08:10:52.124Z,33.90
2023-01-15T08:13:36.759Z,34.00
2023-01-15T08:16:02.852Z,34.00
2023-01-15T08:18:28.913Z,34.00
2023-01-15T08:20:54.946Z,34.00
2023-01-15T08:23:22.072Z,33.90
2023-01-15T08:25:50.075Z,34.00
2023-01-15T08:28:16.173Z,34.00
2023-01-15T08:30:46.075Z,34.00
2023-01-15T08:33:12.259Z,34.00
2023-01-15T08:35:38.296Z,33.90
2023-01-15T08:38:06.037Z,34.00
2023-01-15T08:40:32.398Z,33.90
2023-01-15T08:42:58.443Z,33.90
2023-01-15T08:45:30.601Z,34.00
2023-01-15T08:48:00.131Z,34.00
2023-01-15T08:50:33.283Z,33.90
2023-01-15T08:52:59.364Z,34.00
2023-01-15T08:55:28.575Z,34.00
2023-01-15T08:57:54.627Z,34.00
2023-01-15T09:00:21.072Z,33.90
2023-01-15T09:02:50.167Z,34.00
2023-01-15T09:05:16.785Z,34.00
2023-01-15T09:07:43.022Z,34.00
2023-01-15T09:10:34.784Z,34.00
2023-01-15T09:13:02.147Z,34.00
2023-01-15T09:15:29.566Z,34.00
2023-01-15T09:17:55.851Z,34.00
2023-01-15T09:20:23.641Z,34.10
2023-01-15T09:22:59.642Z,34.00
2023-01-15T09:25:27.182Z,34.00
2023-01-15T09:28:01.556Z,34.00
2023-01-15T09:30:28.943Z,34.00
2023-01-15T09:33:20.707Z,34.00
2023-01-15T09:35:47.257Z,34.00
2023-01-15T09:38:16.997Z,34.00
2023-01-15T09:40:56.777Z,34.00
2023-01-15T09:43:50.598Z,34.00
2023-01-15T09:46:54.461Z,34.00
2023-01-15T09:49:37.153Z,34.10
2023-01-15T09:52:29.704Z,34.00
2023-01-15T09:55:17.906Z,34.10
2023-01-15T09:58:14.652Z,34.00
2023-01-15T10:00:49.682Z,34.00
2023-01-15T10:03:35.379Z,34.00
2023-01-15T10:06:12.304Z,34.00
2023-01-15T10:08:46.980Z,34.00
2023-01-15T10:11:17.079Z,34.00
2023-01-15T10:14:01.569Z,34.00
2023-01-15T10:16:31.522Z,34.10
2023-01-15T10:19:07.427Z,34.10
2023-01-15T10:21:59.504Z,34.10
2023-01-15T10:24:34.980Z,34.00
2023-01-15T10:27:25.258Z,34.00
2023-01-15T10:30:13.970Z,34.10
2023-01-15T10:33:02.376Z,34.00
2023-01-15T10:35:46.184Z,34.10
2023-01-15T10:38:36.716Z,34.10
2023-01-15T10:41:05.826Z,34.00
2023-01-15T10:44:08.449Z,34.00
2023-01-15T10:46:45.415Z,34.00
2023-01-15T10:49:18.113Z,34.10
2023-01-15T10:51:55.923Z,34.00
2023-01-15T10:54:52.675Z,34.00
2023-01-15T10:57:32.175Z,34.00
2023-01-15T11:00:23.830Z,34.00
2023-01-15T11:03:04.265Z,34.00
2023-01-15T11:05:32.454Z,34.10
2023-01-15T11:08:39.511Z,34.10
2023-01-15T11:10:50.058Z,34.00
2023-01-15T11:13:39.632Z,34.00
2023-01-15T11:16:34.553Z,34.10
2023-01-15T11:19:47.680Z,34.00
2023-01-15T11:22:20.347Z,34.10
2023-01-15T11:24:59.788Z,34.10
2023-01-15T11:27:35.329Z,34.70
2023-01-15T11:30:05.744Z,34.10
2023-01-15T11:32:34.617Z,34.00
2023-01-15T11:35:03.812Z,34.20
2023-01-15T11:37:31.183Z,34.00
2023-01-15T11:40:08.224Z,34.10
2023-01-15T11:42:59.680Z,34.10
2023-01-15T11:45:49.843Z,34.10
2023-01-15T11:48:40.683Z,34.10
2023-01-15T11:51:16.773Z,34.20
2023-01-15T11:53:59.324Z,34.10
2023-01-15T11:56:30.808Z,34.20
2023-01-15T11:59:08.588Z,34.20
2023-01-15T12:02:15.187Z,34.20
2023-01-15T12:05:01.754Z,34.20
2023-01-15T12:07:29.187Z,34.10
2023-01-15T12:10:41.219Z,34.20
2023-01-15T12:13:11.155Z,34.20
2023-01-15T12:16:08.985Z,34.20
2023-01-15T12:18:51.764Z,34.10
2023-01-15T12:21:39.849Z,34.20
2023-01-15T12:24:38.252Z,34.20
2023-01-15T12:27:26.916Z,34.20
2023-01-15T12:29:58.975Z,34.10
2023-01-15T12:32:49.947Z,34.10
2023-01-15T12:35:48.408Z,34.20
2023-01-15T12:38:21.762Z,34.10
2023-01-15T12:41:07.646Z,34.20
2023-01-15T12:43:52.997Z,34.10
2023-01-15T12:46:45.883Z,34.20
2023-01-15T12:50:11.788Z,34.20
2023-01-15T12:53:06.706Z,34.10
2023-01-15T12:55:42.239Z,34.20
2023-01-15T12:58:56.806Z,34.20
2023-01-15T13:01:30.337Z,34.20
2023-01-15T13:04:09.134Z,34.20
2023-01-15T13:07:11.618Z,34.20
2023-01-15T13:10:01.196Z,34.20
2023-01-15T13:12:31.237Z,34.20
2023-01-15T13:15:02.467Z,34.20
2023-01-15T13:17:56.784Z,34.20
2023-01-15T13:20:58.918Z,34.20
2023-01-15T13:23:49.973Z,34.20
2023-01-15T13:26:55.797Z,34.20
2023-01-15T13:30:21.873Z,34.10
2023-01-15T13:33:28.811Z,34.20
2023-01-15T13:36:08.683Z,34.20
2023-01-15T13:38:45.612Z,34.20
2023-01-15T13:41:59.119Z,34.20
2023-01-15T13:44:31.959Z,34.20
2023-01-15T13:47:02.797Z,34.20
2023-01-15T13:49:53.188Z,34.20
2023-01-15T13:52:39.764Z,34.20
2023-01-15T13:55:18.009Z,34.20
2023-01-15T13:57:48.848Z,34.20
2023-01-15T14:00:36.190Z,34.20
2023-01-15T14:03:29.527Z,34.20
2023-01-15T14:06:19.228Z,34.20
2023-01-15T14:08:46.015Z,34.20
2023-01-15T14:11:52.471Z,34.80
2023-01-15T14:14:52.303Z,34.20
2023-01-15T14:17:57.783Z,34.20
2023-01-15T14:20:43.910Z,34.20
2023-01-15T14:23:55.073Z,34.20
2023-01-15T14:26:47.894Z,34.20
2023-01-15T14:29:37.084Z,34.20
2023-01-15T14:32:54.049Z,34.20
2023-01-15T14:35:23.183Z,34.20
2023-01-15T14:38:13.833Z,34.30
2023-01-15T14:40:59.191Z,34.20
2023-01-15T14:43:48.398Z,34.20
2023-01-15T14:46:45.501Z,34.30
2023-01-15T14:49:50.977Z,34.20
2023-01-15T14:52:23.166Z,34.30
2023-01-15T14:54:49.861Z,34.20
2023-01-15T14:57:16.484Z,34.20
2023-01-15T15:00:37.532Z,34.30
2023-01-15T15:03:32.529Z,34.20
2023-01-15T15:05:59.180Z,34.20
2023-01-15T15:08:50.619Z,34.20
2023-01-15T15:12:12.169Z,34.20
2023-01-15T15:14:40.232Z,34.20
2023-01-15T15:17:22.631Z,34.20
2023-01-15T15:20:02.187Z,34.20
2023-01-15T15:22:32.265Z,34.20
2023-01-15T15:25:05.040Z,34.20
2023-01-15T15:27:36.057Z,34.20
2023-01-15T15:30:05.347Z,34.20
2023-01-15T15:32:39.616Z,34.20
2023-01-15T15:35:21.509Z,34.20
2023-01-15T15:37:47.583Z,34.20
2023-01-15T15:40:24.849Z,34.20
2023-01-15T15:43:56.696Z,34.20
2023-01-15T15:46:49.794Z,34.20
2023-01-15T15:49:23.491Z,34.20
2023-01-15T15:51:52.368Z,34.20
2023-01-15T15:54:27.401Z,34.20
2023-01-15T15:57:16.770Z,34.20
2023-01-15T15:59:50.933Z,34.10
2023-01-15T16:02:42.289Z,34.20
2023-01-15T16:05:30.796Z,34.10
2023-01-15T16:08:31.750Z,34.20
2023-01-15T16:11:06.618Z,34.10
2023-01-15T16:13:50.279Z,34.10
2023-01-15T16:16:18.881Z,34.80
2023-01-15T16:18:52.207Z,34.20
2023-01-15T16:21:43.891Z,34.20
2023-01-15T16:24:26.588Z,34.20
2023-01-15T16:27:14.714Z,34.20
2023-01-15T16:29:53.958Z,34.20
2023-01-15T16:32:28.279Z,34.10
2023-01-15T16:35:22.043Z,34.10
2023-01-15T16:38:00.484Z,34.10
2023-01-15T16:40:39.168Z,34.00
2023-01-15T16:43:14.995Z,34.00
2023-01-15T16:46:29.103Z,34.00
2023-01-15T16:49:22.866Z,33.90
2023-01-15T16:51:57.563Z,33.80
2023-01-15T16:54:29.450Z,33.90
2023-01-15T16:57:02.084Z,33.80
2023-01-15T16:59:39.623Z,33.80
2023-01-15T17:02:15.984Z,33.70
2023-01-15T17:04:44.267Z,33.70
2023-01-15T17:07:50.427Z,33.60
2023-01-15T17:10:35.621Z,33.50
2023-01-15T17:13:03.623Z,33.40
2023-01-15T17:15:41.260Z,33.40
2023-01-15T17:18:26.391Z,33.40
2023-01-15T17:20:57.375Z,33.40
2023-01-15T17:23:33.105Z,33.40
2023-01-15T17:26:04.388Z,33.30
2023-01-15T17:28:41.717Z,33.20
2023-01-15T17:31:33.045Z,33.30
2023-01-15T17:34:03.252Z,33.20
2023-01-15T17:36:30.354Z,33.20
2023-01-15T17:38:56.617Z,33.20
2023-01-15T17:41:25.566Z,33.10
2023-01-15T17:43:52.887Z,33.00
2023-01-15T17:46:19.058Z,32.90
2023-01-15T17:48:47.146Z,32.90
2023-01-15T17:51:21.183Z,32.80
2023-01-15T17:53:47.237Z,32.90
2023-01-15T17:56:33.611Z,32.90
2023-01-15T17:59:20.863Z,32.80
2023-01-15T18:02:06.296Z,32.80
2023-01-15T18:04:57.867Z,32.70
2023-01-15T18:07:45.535Z,31.50
2023-01-15T18:10:20.474Z,31.70
2023-01-15T18:12:47.182Z,31.80
2023-01-15T18:15:38.193Z,31.90
2023-01-15T18:18:04.325Z,32.00
2023-01-15T18:20:32.321Z,32.00
2023-01-15T18:22:58.380Z,32.20
2023-01-15T18:25:29.198Z,32.10
2023-01-15T18:27:55.252Z,32.20
2023-01-15T18:30:21.534Z,32.20
2023-01-15T18:32:47.661Z,32.30
2023-01-15T18:35:17.289Z,32.20
2023-01-15T18:37:47.118Z,32.30
2023-01-15T18:40:40.165Z,32.30
2023-01-15T18:43:25.118Z,32.30
2023-01-15T18:46:10.108Z,32.30
2023-01-15T18:48:38.606Z,32.30
2023-01-15T18:51:09.273Z,32.30
2023-01-15T18:53:35.381Z,32.30
2023-01-15T18:56:06.276Z,32.30
2023-01-15T18:58:35.544Z,32.40
2023-01-15T19:01:06.779Z,32.40
2023-01-15T19:03:40.553Z,32.40
2023-01-15T19:06:09.619Z,32.30
2023-01-15T19:08:35.666Z,32.40
2023-01-15T19:11:10.516Z,32.40
2023-01-15T19:13:42.258Z,32.40
2023-01-15T19:16:27.366Z,32.40
2023-01-15T19:18:56.475Z,32.40
2023-01-15T19:21:24.316Z,32.40
2023-01-15T19:23:51.008Z,32.40
2023-01-15T19:26:17.055Z,32.40
2023-01-15T19:28:44.397Z,32.40
2023-01-15T19:31:29.209Z,32.40
2023-01-15T19:34:13.249Z,32.50
2023-01-15T19:36:44.299Z,32.40
2023-01-15T19:39:17.772Z,32.40
2023-01-15T19:42:14.041Z,33.20
2023-01-15T19:44:58.863Z,32.50
2023-01-15T19:48:06.221Z,32.50
2023-01-15T19:51:04.074Z,32.50
2023-01-15T19:53:34.129Z,32.50
2023-01-15T19:56:04.593Z,32.50
2023-01-15T19:58:33.509Z,32.50
2023-01-15T20:01:02.004Z,33.20
2023-01-15T20:03:28.448Z,32.60
2023-01-15T20:05:55.002Z,32.50
2023-01-15T20:08:21.311Z,32.50
2023-01-15T20:10:50.708Z,32.50
2023-01-15T20:13:39.030Z,32.60
2023-01-15T20:16:10.368Z,32.60
2023-01-15T20:18:41.221Z,32.50
2023-01-15T20:21:07.955Z,32.60
2023-01-15T20:23:39.428Z,32.60
2023-01-15T20:26:12.919Z,32.60
2023-01-15T20:28:41.772Z,32.60
2023-01-15T20:31:15.789Z,32.60
2023-01-15T20:34:08.071Z,32.60
2023-01-15T20:36:34.971Z,32.60
2023-01-15T20:39:04.601Z,32.60
2023-01-15T20:41:50.259Z,32.60
2023-01-15T20:44:39.258Z,32.60
2023-01-15T20:47:32.038Z,32.60
2023-01-15T20:49:59.575Z,32.60
2023-01-15T20:52:25.699Z,32.60
2023-01-15T20:54:55.042Z,32.70
2023-01-15T20:57:22.507Z,32.60
2023-01-15T20:59:48.583Z,32.60
2023-01-15T21:02:14.624Z,32.70
2023-01-15T21:04:40.724Z,32.70
2023-01-15T21:07:06.939Z,32.70
2023-01-15T21:09:32.997Z,32.70
2023-01-15T21:12:02.104Z,32.70
2023-01-15T21:14:42.435Z,32.60
2023-01-15T21:17:09.516Z,32.70
2023-01-15T21:19:36.493Z,32.70
2023-01-15T21:22:04.486Z,32.70
2023-01-15T21:24:33.207Z,32.60
2023-01-15T21:27:24.520Z,32.70
2023-01-15T21:29:51.055Z,32.70
2023-01-15T21:32:17.160Z,32.70
2023-01-15T21:34:44.712Z,32.70
2023-01-15T21:37:12.005Z,32.70
2023-01-15T21:39:39.534Z,32.70
2023-01-15T21:42:50.449Z,32.70
2023-01-15T21:45:19.109Z,32.70
2023-01-15T21:47:46.928Z,32.70
2023-01-15T21:50:38.497Z,32.70
2023-01-15T21:53:04.556Z,32.70
2023-01-15T21:55:30.811Z,32.60
2023-01-15T21:57:58.135Z,32.70
2023-01-15T22:00:24.191Z,32.70
2023-01-15T22:02:50.403Z,32.70
2023-01-15T22:05:16.567Z,32.70
2023-01-15T22:07:42.694Z,32.70
2023-01-15T22:10:12.600Z,32.70
2023-01-15T22:12:43.062Z,32.70
2023-01-15T22:15:10.658Z,32.70
2023-01-15T22:17:37.758Z,32.70
2023-01-15T22:20:07.977Z,32.70
2023-01-15T22:22:38.621Z,32.70
2023-01-15T22:25:06.952Z,32.70
2023-01-15T22:30:27.719Z,32.70
2023-01-15T22:33:00.483Z,32.70
2023-01-15T22:35:31.701Z,32.70
2023-01-15T22:38:04.463Z,32.60
2023-01-15T22:40:32.664Z,33.40
2023-01-15T22:43:02.551Z,32.70
2023-01-15T22:45:28.589Z,32.70
2023-01-15T22:47:54.711Z,32.70
2023-01-15T22:50:20.754Z,32.70
2023-01-15T22:52:48.878Z,32.70
2023-01-15T22:55:14.982Z,32.70
2023-01-15T22:57:41.046Z,32.70
2023-01-15T23:00:07.756Z,32.70
2023-01-15T23:02:53.371Z,32.70
2023-01-15T23:05:22.472Z,32.70
2023-01-15T23:08:00.714Z,32.70
2023-01-15T23:10:35.410Z,32.70
2023-01-15T23:13:02.792Z,32.80
2023-01-15T23:15:32.524Z,32.80
2023-01-15T23:17:59.011Z,32.70
2023-01-15T23:20:28.402Z,32.80
2023-01-15T23:22:54.451Z,32.80
2023-01-15T23:25:20.647Z,32.80
2023-01-15T23:27:55.938Z,32.80
2023-01-15T23:30:22.589Z,32.70
2023-01-15T23:32:48.637Z,32.70
2023-01-15T23:35:18.889Z,32.70
2023-01-15T23:37:48.507Z,32.70
2023-01-15T23:40:16.760Z,32.70
2023-01-15T23:43:06.277Z,32.70
2023-01-15T23:45:53.965Z,32.70
2023-01-15T23:48:20.078Z,32.70
2023-01-15T23:50:51.530Z,32.70
2023-01-15T23:53:23.508Z,32.80
2023-01-15T23:55:52.428Z,32.80
2023-01-15T23:58:18.494Z,32.70
